Time;durP1;ratioP1;P1;durP2;ratioP2;P2;SDS_P1;SDS_P2;PMS_P1;PMS_P2;Temp;Humidity;BMP_temperature;BMP_pressure;BME280_temperature;BME280_humidity;BME280_pressure;Samples;Min_cycle;Max_cycle;Signal;HPM_P1;HPM_P2
2023/05/13 00:01:56;;;;;;;10.10;7.00;;;;;;;13.82;60.55;101318.64;107839;1260;75003;-92
2023/05/13 00:04:23;;;;;;;8.50;6.60;;;;;;;13.81;60.63;101320.40;107816;1260;72566;-93
2023/05/13 00:06:51;;;;;;;8.50;6.40;;;;;;;13.79;60.85;101320.66;107848;1260;75057;-92
2023/05/13 00:09:18;;;;;;;11.20;7.00;;;;;;;13.78;61.09;101320.00;107788;1260;63198;-91
2023/05/13 00:11:45;;;;;;;8.70;6.90;;;;;;;13.77;61.18;101318.01;108033;1261;60279;-93
2023/05/13 00:14:12;;;;;;;15.70;12.10;;;;;;;13.73;61.02;101321.59;107933;1260;74634;-91
2023/05/13 00:16:41;;;;;;;13.20;7.70;;;;;;;13.67;61.02;101322.03;107831;1260;71895;-93
2023/05/13 00:19:10;;;;;;;13.00;7.70;;;;;;;13.58;61.05;101320.52;107695;1261;71327;-91
2023/05/13 00:21:38;;;;;;;11.10;7.10;;;;;;;13.51;60.97;101322.94;107755;1261;61629;-92
2023/05/13 00:24:05;;;;;;;12.20;8.10;;;;;;;13.44;60.97;101321.50;107769;1261;61131;-90
2023/05/13 00:26:33;;;;;;;11.40;7.50;;;;;;;13.38;60.75;101321.94;107715;1261;74207;-91
2023/05/13 00:29:00;;;;;;;10.20;7.60;;;;;;;13.34;60.79;101321.85;107744;1260;72687;-93
2023/05/13 00:31:27;;;;;;;9.90;7.50;;;;;;;13.28;60.85;101327.61;107788;1265;72729;-92
2023/05/13 00:33:54;;;;;;;10.30;7.80;;;;;;;13.25;61.15;101327.08;107726;1262;63847;-92
2023/05/13 00:36:22;;;;;;;10.10;8.40;;;;;;;13.23;61.54;101330.77;107732;1260;61104;-91
2023/05/13 00:38:49;;;;;;;10.50;7.80;;;;;;;13.23;61.94;101329.52;107780;1261;75990;-92
2023/05/13 00:41:17;;;;;;;10.30;8.00;;;;;;;13.22;62.22;101329.30;107792;1260;75129;-93
2023/05/13 00:43:44;;;;;;;9.60;7.30;;;;;;;13.23;62.35;101327.27;107691;1262;72257;-92
2023/05/13 00:46:11;;;;;;;11.80;8.20;;;;;;;13.24;62.44;101329.27;107831;1260;62359;-92
2023/05/13 00:48:38;;;;;;;11.30;7.70;;;;;;;13.24;62.71;101328.89;107762;1260;61253;-91
2023/05/13 00:51:06;;;;;;;9.70;8.00;;;;;;;13.24;62.98;101329.96;107751;1260;73559;-91
2023/05/13 00:53:36;;;;;;;10.40;7.90;;;;;;;13.22;63.31;101334.54;107762;1260;74857;-91
2023/05/13 00:56:03;;;;;;;12.60;8.30;;;;;;;13.23;63.72;101333.65;107689;1260;72887;-91
2023/05/13 00:58:30;;;;;;;9.80;7.80;;;;;;;13.24;63.94;101334.86;107685;1260;61353;-93
2023/05/13 01:01:04;;;;;;;9.90;7.80;;;;;;;13.26;64.03;101332.63;107453;1260;60472;-91
2023/05/13 01:03:58;;;;;;;10.50;7.70;;;;;;;13.26;64.06;101329.66;107594;1260;76737;-90
2023/05/13 01:06:43;;;;;;;9.70;7.70;;;;;;;13.24;64.33;101333.09;107659;1260;72003;-91
2023/05/13 01:09:17;;;;;;;11.00;7.40;;;;;;;13.24;64.54;101335.83;107570;1261;70622;-92
2023/05/13 01:11:44;;;;;;;9.50;7.40;;;;;;;13.19;64.39;101336.45;107614;1260;62704;-91
2023/05/13 01:14:20;;;;;;;10.00;7.20;;;;;;;13.14;64.33;101334.21;107671;1261;61147;-91
2023/05/13 01:17:00;;;;;;;8.80;7.30;;;;;;;13.11;64.36;101334.29;107627;1260;76700;-91
2023/05/13 01:19:42;;;;;;;8.60;7.40;;;;;;;13.10;64.29;101336.74;107510;1260;73010;-91
2023/05/13 01:22:10;;;;;;;11.50;7.40;;;;;;;13.06;64.18;101335.06;107571;1260;71960;-91
2023/05/13 01:24:37;;;;;;;9.00;6.80;;;;;;;13.02;64.35;101336.61;107558;1260;61117;-92
2023/05/13 01:27:04;;;;;;;10.60;7.40;;;;;;;12.99;64.26;101335.84;107553;1261;61133;-90
2023/05/13 01:29:31;;;;;;;11.10;7.20;;;;;;;12.93;64.28;101333.27;107560;1261;73186;-92
2023/05/13 01:31:59;;;;;;;10.80;7.30;;;;;;;12.89;64.10;101340.79;107608;1260;72258;-91
2023/05/13 01:34:26;;;;;;;10.10;7.40;;;;;;;12.87;64.11;101342.17;107599;1261;74054;-92
2023/05/13 01:36:53;;;;;;;9.90;6.90;;;;;;;12.84;63.97;101337.52;107523;1260;61257;-90
2023/05/13 01:39:20;;;;;;;9.90;6.80;;;;;;;12.80;63.82;101334.89;107704;1261;62197;-91
2023/05/13 01:41:48;;;;;;;7.60;6.30;;;;;;;12.77;63.69;101333.95;107505;1261;75226;-91
2023/05/13 01:44:16;;;;;;;10.30;6.80;;;;;;;12.74;63.49;101332.21;107592;1260;74933;-91
2023/05/13 01:46:44;;;;;;;10.50;6.60;;;;;;;12.73;63.19;101333.81;107507;1260;71218;-92
2023/05/13 01:49:11;;;;;;;9.10;6.40;;;;;;;12.72;62.85;101333.20;107586;1262;61793;-92
2023/05/13 01:51:40;;;;;;;10.20;6.00;;;;;;;12.70;62.76;101334.22;107678;1265;59926;-91
2023/05/13 01:54:07;;;;;;;8.30;6.20;;;;;;;12.70;62.59;101334.80;107879;1260;77064;-91
2023/05/13 01:56:39;;;;;;;10.80;6.90;;;;;;;12.70;62.63;101331.58;107711;1260;73613;-91
2023/05/13 01:59:09;;;;;;;8.50;6.60;;;;;;;12.69;62.48;101334.04;107574;1260;73526;-91
2023/05/13 02:01:36;;;;;;;9.20;6.60;;;;;;;12.69;62.27;101333.81;107568;1261;61164;-91
2023/05/13 02:04:03;;;;;;;8.20;6.40;;;;;;;12.66;62.12;101332.62;107549;1261;61430;-90
2023/05/13 02:06:33;;;;;;;8.70;6.90;;;;;;;12.64;62.29;101336.35;107528;1260;73102;-91
2023/05/13 02:09:00;;;;;;;10.80;6.90;;;;;;;12.60;62.30;101340.31;107662;1263;72840;-90
2023/05/13 02:11:28;;;;;;;9.00;6.60;;;;;;;12.56;62.37;101339.63;107612;1260;72706;-90
2023/05/13 02:13:56;;;;;;;10.40;6.70;;;;;;;12.55;62.41;101336.19;107589;1261;64333;-92
2023/05/13 02:16:23;;;;;;;8.90;7.20;;;;;;;12.54;62.46;101335.80;107677;1260;61930;-91
2023/05/13 02:18:50;;;;;;;10.50;6.80;;;;;;;12.52;62.44;101338.83;107616;1261;76579;-91
2023/05/13 02:21:18;;;;;;;10.40;7.20;;;;;;;12.52;62.40;101337.92;107660;1260;71535;-91
2023/05/13 02:23:45;;;;;;;9.20;7.30;;;;;;;12.50;62.36;101340.25;107659;1260;71143;-92
2023/05/13 02:26:12;;;;;;;8.30;6.50;;;;;;;12.47;62.38;101342.84;107586;1260;62111;-92
2023/05/13 02:28:39;;;;;;;9.30;7.00;;;;;;;12.44;62.33;101341.95;107583;1261;61262;-91
2023/05/13 02:31:06;;;;;;;8.30;6.50;;;;;;;12.42;62.23;101345.20;107613;1264;77014;-92
2023/05/13 02:33:34;;;;;;;9.00;6.30;;;;;;;12.39;62.18;101349.89;107607;1260;74257;-92
2023/05/13 02:36:01;;;;;;;9.80;6.80;;;;;;;12.37;61.99;101346.49;107615;1261;74185;-92
2023/05/13 02:38:28;;;;;;;10.00;6.40;;;;;;;12.35;61.83;101352.20;107498;1262;61960;-92
2023/05/13 02:40:55;;;;;;;9.00;6.20;;;;;;;12.33;61.53;101350.61;107589;1266;61257;-92
2023/05/13 02:43:26;;;;;;;10.40;6.40;;;;;;;12.30;61.36;101345.86;107681;1260;77527;-92
2023/05/13 02:45:55;;;;;;;;;;;;;;;12.28;61.15;101352.52;107773;1261;72273;-92
2023/05/13 02:48:23;;;;;;;9.00;6.00;;;;;;;12.27;60.87;101350.98;107650;1261;75124;-92
2023/05/13 02:50:51;;;;;;;7.20;5.50;;;;;;;12.28;60.55;101354.72;107554;1260;60998;-91
2023/05/13 02:53:19;;;;;;;9.80;6.20;;;;;;;12.30;60.20;101355.02;107628;1261;62603;-91
2023/05/13 02:55:51;;;;;;;7.90;6.00;;;;;;;12.32;60.01;101359.33;107581;1260;74678;-91
2023/05/13 02:58:19;;;;;;;8.40;6.20;;;;;;;12.34;59.87;101356.48;107503;1260;72505;-91
2023/05/13 03:00:46;;;;;;;7.70;5.80;;;;;;;12.36;59.50;101361.67;107629;1263;75694;-90
2023/05/13 03:03:14;;;;;;;7.60;5.50;;;;;;;12.38;59.44;101363.00;107806;1260;61090;-91
2023/05/13 03:05:41;;;;;;;7.90;5.30;;;;;;;12.39;59.17;101363.96;107781;1261;60121;-91
2023/05/13 03:08:08;;;;;;;7.10;5.50;;;;;;;12.42;58.93;101369.27;107731;1260;76762;-92
2023/05/13 03:10:36;;;;;;;8.90;6.20;;;;;;;12.48;58.79;101369.55;107682;1260;71086;-92
2023/05/13 03:13:05;;;;;;;10.20;5.70;;;;;;;12.54;58.59;101373.16;107443;1260;71386;-91
2023/05/13 03:15:35;;;;;;;7.00;5.60;;;;;;;12.58;58.26;101379.31;107591;1261;62755;-92
2023/05/13 03:18:02;;;;;;;8.00;5.10;;;;;;;12.63;58.23;101386.98;107494;1261;61376;-91
2023/05/13 03:20:30;;;;;;;7.50;5.30;;;;;;;12.66;58.13;101389.06;107615;1260;75820;-92
2023/05/13 03:22:58;;;;;;;8.80;5.60;;;;;;;12.68;58.13;101380.09;107626;1260;73031;-92
2023/05/13 03:25:26;;;;;;;8.50;5.70;;;;;;;12.73;58.24;101383.73;107661;1261;75013;-91
2023/05/13 03:27:56;;;;;;;7.60;5.80;;;;;;;12.85;58.08;101386.58;107690;1261;64060;-92
2023/05/13 03:30:25;;;;;;;10.40;6.30;;;;;;;12.93;58.06;101387.38;107570;1261;61266;-92
2023/05/13 03:32:58;;;;;;;9.20;5.90;;;;;;;13.02;57.87;101389.67;107610;1260;75156;-93
2023/05/13 03:35:26;;;;;;;10.00;6.40;;;;;;;13.13;57.79;101392.73;107553;1260;72779;-92
2023/05/13 03:37:53;;;;;;;10.40;6.10;;;;;;;13.23;57.58;101391.72;107526;1262;73654;-92
2023/05/13 03:40:20;;;;;;;8.60;5.30;;;;;;;13.34;57.31;101391.61;107661;1261;61240;-93
2023/05/13 03:42:50;;;;;;;8.80;5.40;;;;;;;13.46;57.19;101394.78;107629;1261;61371;-92
2023/05/13 03:45:19;;;;;;;8.50;5.50;;;;;;;13.58;57.11;101397.55;107717;1262;77002;-92
2023/05/13 03:47:48;;;;;;;8.80;5.70;;;;;;;13.70;57.01;101398.58;107746;1261;73492;-93
2023/05/13 03:50:16;;;;;;;7.50;5.70;;;;;;;13.84;56.77;101400.06;107776;1261;71559;-91
2023/05/13 03:52:44;;;;;;;9.40;5.40;;;;;;;13.97;56.48;101401.38;107853;1260;64310;-90
2023/05/13 03:55:14;;;;;;;6.90;4.90;;;;;;;14.09;56.17;101405.71;108449;1260;61237;-92
2023/05/13 03:57:46;;;;;;;7.00;5.00;;;;;;;14.30;55.64;101406.91;108404;1260;74635;-92
2023/05/13 04:00:16;;;;;;;8.30;4.60;;;;;;;14.48;55.05;101406.20;108280;1261;73584;-91
2023/05/13 04:02:43;;;;;;;7.60;4.30;;;;;;;14.63;54.43;101406.96;108508;1260;74189;-91
2023/05/13 04:05:12;;;;;;;6.00;4.00;;;;;;;14.75;53.69;101407.34;108584;1264;61328;-92
2023/05/13 04:07:46;;;;;;;6.30;4.00;;;;;;;14.86;52.96;101406.73;108027;1260;61458;-91
2023/05/13 04:10:13;;;;;;;6.70;4.10;;;;;;;14.98;52.39;101406.17;107661;1260;76844;-90
2023/05/13 04:12:41;;;;;;;6.20;3.70;;;;;;;15.12;51.87;101406.57;107696;1266;71854;-91
2023/05/13 04:15:09;;;;;;;6.40;3.70;;;;;;;15.21;51.00;101409.33;107683;1260;70905;-92
2023/05/13 04:17:36;;;;;;;5.10;3.40;;;;;;;15.21;50.34;101415.10;107677;1261;62895;-92
2023/05/13 04:20:06;;;;;;;5.10;3.50;;;;;;;15.27;49.84;101413.91;107699;1260;61014;-91
2023/05/13 04:22:34;;;;;;;5.60;3.50;;;;;;;15.37;49.39;101415.33;107633;1259;76719;-92
2023/05/13 04:25:01;;;;;;;6.90;3.90;;;;;;;15.46;48.86;101415.07;107644;1259;75163;-92
2023/05/13 04:27:28;;;;;;;6.50;4.00;;;;;;;15.55;48.31;101416.58;107756;1259;73278;-92
2023/05/13 04:30:07;;;;;;;6.50;4.20;;;;;;;15.66;48.52;101419.77;107655;1260;62837;-92
2023/05/13 04:32:38;;;;;;;7.70;4.30;;;;;;;15.76;48.45;101417.63;107564;1261;61958;-92
2023/05/13 04:35:08;;;;;;;5.80;3.70;;;;;;;15.91;48.15;101414.70;107610;1261;74956;-91
2023/05/13 04:37:37;;;;;;;7.60;4.20;;;;;;;16.12;47.65;101416.72;107733;1261;71468;-91
2023/05/13 04:40:07;;;;;;;7.00;3.80;;;;;;;16.26;47.24;101419.65;107891;1264;73643;-91
2023/05/13 04:42:37;;;;;;;6.90;3.50;;;;;;;16.38;46.41;101418.16;107759;1261;61103;-92
2023/05/13 04:45:05;;;;;;;5.80;3.60;;;;;;;16.47;46.07;101422.66;107949;1260;60448;-91
2023/05/13 04:47:34;;;;;;;6.50;4.10;;;;;;;16.57;46.01;101420.73;108137;1261;75874;-91
2023/05/13 04:50:01;;;;;;;9.20;5.20;;;;;;;16.62;46.05;101414.71;108517;1260;73430;-91
2023/05/13 04:52:30;;;;;;;7.30;5.10;;;;;;;16.69;45.95;101414.64;108866;1260;73701;-89
2023/05/13 04:54:57;;;;;;;9.60;5.60;;;;;;;16.80;45.88;101412.29;108898;1260;60981;-90
2023/05/13 04:57:30;;;;;;;7.80;5.70;;;;;;;16.92;45.61;101413.31;109030;1260;58684;-92
2023/05/13 04:59:58;;;;;;;8.00;4.90;;;;;;;17.04;45.49;101414.75;107715;1261;75879;-92
2023/05/13 05:02:28;;;;;;;6.20;4.20;;;;;;;17.16;45.48;101410.37;107632;1260;74915;-92
2023/05/13 05:04:56;;;;;;;7.50;4.40;;;;;;;17.30;45.56;101415.83;107667;1260;73076;-90
2023/05/13 05:07:23;;;;;;;6.70;4.30;;;;;;;17.36;45.43;101417.19;107649;1262;61200;-91
2023/05/13 05:09:50;;;;;;;6.90;4.10;;;;;;;17.39;45.46;101415.17;107801;1260;61318;-92
2023/05/13 05:12:18;;;;;;;9.10;4.40;;;;;;;17.46;45.25;101416.15;107679;1261;74976;-91
2023/05/13 05:14:45;;;;;;;5.70;4.40;;;;;;;17.54;45.13;101413.91;107681;1260;71676;-92
2023/05/13 05:17:12;;;;;;;6.90;4.40;;;;;;;17.62;45.14;101412.50;107610;1261;72842;-91
2023/05/13 05:19:40;;;;;;;7.50;4.40;;;;;;;17.72;44.90;101413.17;107733;1260;61101;-93
2023/05/13 05:22:07;;;;;;;6.60;4.00;;;;;;;17.81;44.63;101415.06;107797;1261;61297;-91
2023/05/13 05:24:34;;;;;;;4.70;3.60;;;;;;;17.92;44.23;101411.66;107593;1260;76937;-91
2023/05/13 05:27:02;;;;;;;7.00;3.20;;;;;;;18.03;43.46;101413.34;107632;1260;73230;-90
2023/05/13 05:29:29;;;;;;;6.90;3.40;;;;;;;18.17;43.01;101412.55;107642;1261;71756;-91
2023/05/13 05:31:56;;;;;;;6.90;3.70;;;;;;;18.32;42.18;101411.14;107711;1259;61269;-92
2023/05/13 05:34:24;;;;;;;5.90;3.30;;;;;;;18.45;42.08;101413.14;107874;1261;61113;-91
2023/05/13 05:36:54;;;;;;;5.60;3.30;;;;;;;18.59;42.02;101412.81;107805;1261;76664;-91
2023/05/13 05:39:21;;;;;;;6.60;3.40;;;;;;;18.72;41.59;101411.86;107739;1261;73118;-92
2023/05/13 05:41:49;;;;;;;7.60;3.50;;;;;;;18.85;41.13;101412.73;107689;1261;74311;-93
2023/05/13 05:44:16;;;;;;;6.90;3.90;;;;;;;18.98;41.02;101414.77;107892;1261;60042;-93
2023/05/13 05:46:43;;;;;;;5.70;3.30;;;;;;;19.09;40.74;101415.85;107858;1262;62310;-92
2023/05/13 05:49:12;;;;;;;6.80;3.50;;;;;;;19.19;40.56;101416.52;107866;1262;74928;-94
2023/05/13 05:51:40;;;;;;;4.60;3.00;;;;;;;19.32;40.26;101413.55;107750;1261;72558;-92
2023/05/13 05:54:07;;;;;;;5.10;3.20;;;;;;;19.47;39.69;101410.55;107775;1261;73675;-93
2023/05/13 05:56:37;;;;;;;5.10;2.60;;;;;;;19.63;39.36;101414.59;107733;1262;62476;-91
2023/05/13 05:59:05;;;;;;;4.50;2.70;;;;;;;19.76;39.04;101409.88;107836;1262;59959;-92
2023/05/13 06:01:35;;;;;;;5.70;2.70;;;;;;;19.96;38.94;101411.97;107976;1260;75457;-91
2023/05/13 06:04:04;;;;;;;3.90;2.70;;;;;;;20.10;38.59;101410.56;107764;1262;74927;-93
2023/05/13 06:06:31;;;;;;;4.90;2.50;;;;;;;20.29;38.03;101410.74;107691;1261;71005;-91
2023/05/13 06:08:58;;;;;;;4.50;2.80;;;;;;;20.49;37.38;101409.23;107689;1262;61123;-92
2023/05/13 06:11:26;;;;;;;4.30;2.40;;;;;;;20.55;37.49;101410.15;107769;1260;61096;-91
2023/05/13 06:13:56;;;;;;;3.90;2.50;;;;;;;20.66;37.15;101412.27;107785;1261;74673;-91
2023/05/13 06:16:23;;;;;;;4.80;2.50;;;;;;;20.78;36.47;101409.66;107746;1261;74784;-91
2023/05/13 06:18:51;;;;;;;3.80;2.30;;;;;;;20.90;36.27;101405.66;107905;1260;73743;-94
2023/05/13 06:21:18;;;;;;;4.30;2.40;;;;;;;21.00;35.37;101409.94;107781;1262;62714;-92
2023/05/13 06:23:48;;;;;;;6.20;2.60;;;;;;;21.07;35.12;101407.81;107735;1261;62486;-94
2023/05/13 06:26:15;;;;;;;5.80;2.50;;;;;;;21.13;34.60;101405.98;107764;1262;75058;-91
2023/05/13 06:28:43;;;;;;;4.10;2.30;;;;;;;21.19;34.35;101406.61;107798;1262;72432;-92
2023/05/13 06:31:10;;;;;;;5.10;2.20;;;;;;;21.28;34.58;101406.77;107688;1261;74436;-92
2023/05/13 06:33:38;;;;;;;3.90;2.50;;;;;;;21.47;34.47;101406.67;107829;1261;61099;-93
2023/05/13 06:36:08;;;;;;;5.10;2.50;;;;;;;21.68;34.18;101402.17;107724;1261;61219;-93
2023/05/13 06:38:36;;;;;;;4.50;2.20;;;;;;;21.83;33.95;101405.11;107726;1260;73790;-93
2023/05/13 06:41:03;;;;;;;5.10;1.70;;;;;;;21.96;33.27;101409.87;107748;1262;73091;-93
2023/05/13 06:43:37;;;;;;;3.30;1.70;;;;;;;22.07;32.72;101412.00;107803;1261;75157;-92
2023/05/13 06:46:19;;;;;;;3.10;1.60;;;;;;;22.11;32.07;101413.67;107745;1262;61114;-91
2023/05/13 06:48:51;;;;;;;2.90;1.80;;;;;;;22.20;31.43;101412.98;107777;1261;59401;-92
2023/05/13 06:51:18;;;;;;;3.80;1.70;;;;;;;22.39;31.71;101405.58;107689;1261;73343;-92
2023/05/13 06:53:46;;;;;;;3.70;1.50;;;;;;;22.49;30.80;101406.05;107868;1261;72535;-91
2023/05/13 06:56:23;;;;;;;3.50;1.60;;;;;;;22.44;29.85;101409.55;107906;1261;72879;-90
2023/05/13 06:58:54;;;;;;;4.00;1.70;;;;;;;22.46;29.64;101409.60;108052;1260;61604;-92
2023/05/13 07:01:27;;;;;;;3.60;1.60;;;;;;;22.52;30.05;101405.45;107942;1262;61205;-92
2023/05/13 07:03:56;;;;;;;3.10;1.50;;;;;;;22.63;29.34;101399.86;107845;1262;74793;-93
2023/05/13 07:06:23;;;;;;;2.80;1.30;;;;;;;22.69;29.38;101400.00;108006;1261;72288;-92
2023/05/13 07:08:50;;;;;;;2.30;1.40;;;;;;;22.85;28.60;101401.11;107821;1262;75147;-94
2023/05/13 07:11:18;;;;;;;2.20;1.30;;;;;;;22.81;28.06;101401.77;107911;1262;60111;-94
2023/05/13 07:17:50;;;;;;;2.50;1.50;;;;;;;22.97;28.06;101394.83;107642;1261;75705;-90
2023/05/13 07:20:20;;;;;;;4.30;1.90;;;;;;;22.95;28.03;101392.42;107689;1262;74465;-91
2023/05/13 07:22:49;;;;;;;3.10;1.80;;;;;;;22.96;27.48;101385.60;107710;1261;72861;-92
2023/05/13 07:25:20;;;;;;;4.80;1.50;;;;;;;23.00;27.94;101389.23;107661;1260;61309;-91
2023/05/13 07:27:48;;;;;;;2.70;1.60;;;;;;;23.11;28.14;101391.75;107627;1260;61361;-92
2023/05/13 07:30:17;;;;;;;4.70;1.70;;;;;;;23.21;28.59;101394.51;107741;1260;75633;-92
2023/05/13 07:32:44;;;;;;;2.70;1.70;;;;;;;23.32;27.99;101395.08;107577;1262;71432;-92
2023/05/13 07:35:11;;;;;;;2.80;1.50;;;;;;;23.40;27.33;101394.25;107697;1260;75002;-92
2023/05/13 07:37:39;;;;;;;2.60;1.50;;;;;;;23.46;27.19;101393.19;107585;1262;61083;-93
2023/05/13 07:40:06;;;;;;;4.40;1.70;;;;;;;23.50;26.92;101390.94;107713;1261;62604;-93
2023/05/13 07:42:35;;;;;;;3.50;1.60;;;;;;;23.54;26.41;101389.70;107680;1262;74807;-94
2023/05/13 07:45:09;;;;;;;2.50;1.40;;;;;;;23.58;26.42;101387.27;107752;1261;73486;-91
2023/05/13 07:47:37;;;;;;;3.30;1.70;;;;;;;23.64;26.14;101384.98;107797;1261;75027;-92
2023/05/13 07:50:05;;;;;;;3.60;1.70;;;;;;;23.75;26.57;101381.05;107701;1262;62676;-92
2023/05/13 07:52:33;;;;;;;5.80;1.90;;;;;;;23.96;26.41;101383.25;107744;1262;61178;-90
2023/05/13 07:55:01;;;;;;;3.70;1.40;;;;;;;24.06;25.65;101384.11;107566;1261;74319;-92
2023/05/13 07:57:35;;;;;;;2.40;1.30;;;;;;;24.11;25.93;101386.27;107768;1261;74956;-92
2023/05/13 08:00:05;;;;;;;3.50;1.40;;;;;;;24.24;25.91;101387.23;107634;1260;73668;-92
2023/05/13 08:02:40;;;;;;;2.20;1.50;;;;;;;24.33;25.35;101385.41;107644;1261;61301;-92
2023/05/13 08:05:09;;;;;;;2.40;1.40;;;;;;;24.38;24.69;101388.95;107731;1262;61416;-92
2023/05/13 08:07:37;;;;;;;3.00;1.40;;;;;;;24.36;24.16;101387.39;107647;1263;75887;-92
2023/05/13 08:10:05;;;;;;;2.50;1.20;;;;;;;24.34;24.07;101384.51;107789;1261;73400;-93
2023/05/13 08:12:36;;;;;;;3.60;1.60;;;;;;;24.40;24.45;101386.77;107779;1262;73944;-93
2023/05/13 08:15:06;;;;;;;2.70;1.60;;;;;;;24.46;24.86;101387.91;107724;1261;61438;-92
2023/05/13 08:17:49;;;;;;;3.60;1.50;;;;;;;24.54;24.51;101382.13;108234;1261;59181;-93
2023/05/13 08:20:42;;;;;;;3.30;1.30;;;;;;;24.72;24.75;101378.83;108384;1261;75779;-92
2023/05/13 08:23:11;;;;;;;1.80;1.20;;;;;;;24.86;24.42;101378.23;108217;1260;72150;-93
2023/05/13 08:25:39;;;;;;;2.10;1.30;;;;;;;24.90;24.03;101379.02;108246;1260;70948;-92
2023/05/13 08:28:26;;;;;;;2.30;1.30;;;;;;;25.01;23.05;101373.19;108032;1261;61304;-91
2023/05/13 08:30:53;;;;;;;2.60;1.50;;;;;;;25.15;22.95;101371.64;107747;1262;61162;-93
2023/05/13 08:33:23;;;;;;;2.20;1.20;;;;;;;25.20;23.13;101363.98;108299;1262;75561;-93
2023/05/13 08:36:16;;;;;;;3.70;1.30;;;;;;;25.24;22.81;101359.89;108130;1261;73413;-93
2023/05/13 08:38:55;;;;;;;2.90;1.50;;;;;;;25.24;22.84;101355.60;108130;1262;74698;-91
2023/05/13 08:41:22;;;;;;;1.80;1.10;;;;;;;25.30;22.72;101354.16;108052;1262;60332;-90
2023/05/13 08:43:49;;;;;;;2.40;1.30;;;;;;;25.41;22.23;101353.75;107648;1261;61204;-91
2023/05/13 08:46:16;;;;;;;2.30;1.20;;;;;;;25.43;22.31;101351.25;107819;1262;76273;-92
2023/05/13 08:48:44;;;;;;;2.20;1.30;;;;;;;25.49;22.69;101351.52;107673;1261;73907;-93
2023/05/13 08:51:11;;;;;;;3.00;1.20;;;;;;;25.53;22.86;101351.11;107663;1262;74860;-93
2023/05/13 08:53:39;;;;;;;3.30;1.20;;;;;;;25.63;23.02;101349.17;107641;1262;61155;-92
2023/05/13 08:56:07;;;;;;;3.30;1.30;;;;;;;25.81;22.72;101349.80;107776;1260;59303;-92
2023/05/13 08:58:34;;;;;;;2.10;1.10;;;;;;;25.98;22.28;101345.80;107738;1260;73637;-91
2023/05/13 09:01:03;;;;;;;2.50;1.30;;;;;;;26.07;21.61;101344.61;107624;1262;71325;-92
2023/05/13 09:03:30;;;;;;;3.40;1.40;;;;;;;26.13;21.75;101344.89;107694;1261;72997;-93
2023/05/13 09:06:00;;;;;;;2.60;1.30;;;;;;;26.27;22.00;101340.23;107688;1263;61321;-92
2023/05/13 09:08:27;;;;;;;1.80;1.10;;;;;;;26.39;21.84;101338.48;107765;1262;61260;-91
2023/05/13 09:10:55;;;;;;;2.70;1.20;;;;;;;26.37;22.35;101338.02;107702;1260;73566;-92
2023/05/13 09:13:22;;;;;;;2.00;1.30;;;;;;;26.26;22.09;101333.94;107654;1260;73763;-92
2023/05/13 09:15:52;;;;;;;2.70;1.20;;;;;;;26.15;21.54;101333.76;107613;1261;74697;-92
2023/05/13 09:18:20;;;;;;;2.30;1.20;;;;;;;26.01;21.09;101329.64;107777;1261;61164;-93
2023/05/13 09:20:47;;;;;;;2.90;1.20;;;;;;;25.88;21.04;101327.52;107647;1262;61456;-90
2023/05/13 09:23:15;;;;;;;2.50;1.40;;;;;;;25.75;21.43;101323.63;107713;1259;74725;-91
2023/05/13 09:25:42;;;;;;;2.10;1.30;;;;;;;25.62;21.48;101316.95;107704;1259;71541;-91
2023/05/13 09:28:13;;;;;;;2.50;1.30;;;;;;;25.60;21.43;101316.70;107708;1262;73223;-92
2023/05/13 09:30:40;;;;;;;4.70;1.30;;;;;;;25.58;21.98;101311.51;107708;1262;61139;-93
2023/05/13 09:33:12;;;;;;;2.40;1.00;;;;;;;25.61;20.96;101306.04;107845;1260;61259;-90
2023/05/13 09:35:52;;;;;;;3.30;1.60;;;;;;;25.58;21.08;101301.80;107700;1260;73486;-92
2023/05/13 09:38:24;;;;;;;1.50;1.10;;;;;;;25.62;21.03;101299.52;107733;1262;73533;-93
2023/05/13 09:40:58;;;;;;;2.50;1.30;;;;;;;25.76;21.12;101296.86;107676;1262;72766;-91
2023/05/13 09:43:26;;;;;;;2.80;1.40;;;;;;;25.90;20.61;101291.23;107732;1261;61194;-92
2023/05/13 09:45:56;;;;;;;1.70;1.20;;;;;;;25.92;20.37;101287.69;107562;1261;61965;-89
2023/05/13 09:48:24;;;;;;;3.20;1.20;;;;;;;25.83;20.31;101291.09;107628;1260;75522;-92
2023/05/13 09:50:54;;;;;;;3.40;1.30;;;;;;;25.58;20.44;101291.26;107620;1262;74914;-92
2023/05/13 09:53:21;;;;;;;4.50;1.40;;;;;;;25.35;20.95;101290.58;107582;1267;73772;-92
2023/05/13 09:55:51;;;;;;;2.30;1.40;;;;;;;25.22;20.92;101292.07;107556;1262;62378;-91
2023/05/13 09:58:20;;;;;;;2.00;1.20;;;;;;;25.19;21.10;101286.67;107663;1260;62125;-90
2023/05/13 10:00:50;;;;;;;2.20;1.30;;;;;;;25.23;21.30;101280.35;107590;1261;76320;-91
2023/05/13 10:03:19;;;;;;;3.00;1.40;;;;;;;25.18;21.20;101282.33;107639;1261;74822;-91
2023/05/13 10:05:47;;;;;;;3.00;1.20;;;;;;;25.11;21.12;101275.83;107650;1262;72699;-92
2023/05/13 10:08:17;;;;;;;2.50;1.20;;;;;;;25.15;20.80;101274.36;107544;1260;61162;-91
2023/05/13 10:10:45;;;;;;;2.40;1.10;;;;;;;25.33;21.04;101272.13;107603;1260;61396;-92
2023/05/13 10:13:15;;;;;;;1.60;1.10;;;;;;;25.56;20.46;101266.64;107637;1263;75494;-93
2023/05/13 10:15:53;;;;;;;2.60;1.40;;;;;;;25.77;20.47;101260.29;107641;1261;73915;-93
2023/05/13 10:18:21;;;;;;;2.60;1.10;;;;;;;26.02;20.24;101258.34;107597;1262;74113;-93
2023/05/13 10:20:51;;;;;;;4.90;1.50;;;;;;;26.25;20.46;101255.73;107544;1262;61358;-93
2023/05/13 10:23:21;;;;;;;2.10;1.10;;;;;;;26.57;20.61;101254.73;107590;1261;61414;-91
2023/05/13 10:25:49;;;;;;;6.30;1.30;;;;;;;26.89;20.88;101257.66;107645;1261;75595;-90
2023/05/13 10:28:17;;;;;;;2.10;1.10;;;;;;;27.12;20.81;101258.26;107683;1262;74860;-92
2023/05/13 10:30:44;;;;;;;2.10;1.10;;;;;;;27.24;20.78;101263.21;107686;1261;74291;-93
2023/05/13 10:33:12;;;;;;;2.20;1.10;;;;;;;27.22;20.82;101258.38;107590;1263;61168;-93
2023/05/13 10:35:47;;;;;;;2.30;1.20;;;;;;;27.17;20.72;101257.46;107778;1261;60894;-94
2023/05/13 10:38:29;;;;;;;3.70;1.10;;;;;;;27.16;20.75;101253.98;107698;1260;74134;-92
2023/05/13 10:41:09;;;;;;;3.40;1.30;;;;;;;27.12;20.86;101251.69;107740;1265;73656;-93
2023/05/13 10:43:37;;;;;;;4.40;1.30;;;;;;;27.21;21.21;101250.34;107636;1267;73594;-93
2023/05/13 10:46:06;;;;;;;3.20;1.30;;;;;;;27.40;20.38;101242.52;107652;1261;61139;-93
2023/05/13 10:48:39;;;;;;;3.30;1.30;;;;;;;27.47;19.29;101242.92;107723;1262;61258;-93
2023/05/13 10:51:07;;;;;;;2.70;1.40;;;;;;;27.54;20.10;101244.02;107623;1261;74658;-91
2023/05/13 10:53:37;;;;;;;2.20;1.30;;;;;;;27.63;19.76;101237.65;107554;1263;73716;-91
2023/05/13 10:56:06;;;;;;;2.30;1.10;;;;;;;27.57;20.24;101241.20;107658;1262;74855;-91
2023/05/13 10:58:36;;;;;;;2.40;1.30;;;;;;;27.48;20.59;101245.92;107737;1260;61291;-92
2023/05/13 11:01:16;;;;;;;2.80;1.50;;;;;;;27.43;21.13;101247.30;107645;1265;61254;-91
2023/05/13 11:03:54;;;;;;;2.00;1.30;;;;;;;27.46;20.81;101244.86;107655;1265;74801;-92
2023/05/13 11:06:23;;;;;;;3.70;1.50;;;;;;;27.54;20.42;101236.90;107608;1261;74324;-91
2023/05/13 11:08:51;;;;;;;2.80;1.10;;;;;;;27.57;20.52;101235.32;107624;1261;74558;-91
2023/05/13 11:11:29;;;;;;;2.80;1.30;;;;;;;27.66;20.75;101232.94;107634;1261;61685;-93
2023/05/13 11:14:12;;;;;;;3.30;1.50;;;;;;;27.77;20.58;101233.45;107449;1262;207475;-91
2023/05/13 11:16:51;;;;;;;3.10;1.20;;;;;;;27.79;20.19;101227.23;107577;1261;73964;-91
2023/05/13 11:19:25;;;;;;;3.50;1.50;;;;;;;27.70;20.17;101228.79;107601;1261;73260;-90
2023/05/13 11:21:57;;;;;;;2.30;1.50;;;;;;;27.55;20.13;101225.33;107601;1265;75012;-88
2023/05/13 11:24:25;;;;;;;3.90;1.20;;;;;;;27.42;20.13;101225.40;107590;1262;60866;-90
2023/05/13 11:26:56;;;;;;;3.70;1.50;;;;;;;27.30;20.46;101223.54;107688;1261;60937;-92
2023/05/13 11:29:37;;;;;;;3.30;1.40;;;;;;;27.23;20.90;101224.08;107659;1263;73733;-91
2023/05/13 11:32:05;;;;;;;2.70;1.20;;;;;;;27.25;20.86;101222.80;107640;1263;73715;-90